Terminal Aerodrome Forecast
Issued by NWS Sioux Falls, SD

Home | Current Version | Previous Version | Graphics & Text | Print | Product List | Glossary On
Versions: 1 2 3 4 5 6 7 8 9 10 11 12 13
000
FTUS43 KFSD 210520
TAFFSD
TAF
KFSD 210520Z 2106/2206 10006KT P6SM SCT200
     FM210900 13007KT P6SM VCTS SCT090CB BKN110
     FM211100 12008KT P6SM BKN100
     FM211500 13013G21KT P6SM BKN130
     FM211900 17012KT P6SM SCT100
     FM212300 21007KT P6SM SCT045
     FM220200 VRB04KT P6SM FEW050=

USA.gov is the U.S. government's official web portal to all federal, state and local government web resources and services.